sensor_id;sensor_type;location;lat;lon;timestamp;P1;durP1;ratioP1;P2;durP2;ratioP2
69485;SDS011;56677;51.710;5.366;2022-11-20T06:49:21;6.68;;;3.78;;
69485;SDS011;56677;51.710;5.366;2022-11-20T06:51:46;6.05;;;3.85;;
69485;SDS011;56677;51.710;5.366;2022-11-20T06:54:11;5.53;;;3.30;;
69485;SDS011;56677;51.710;5.366;2022-11-20T06:56:36;6.15;;;4.10;;
69485;SDS011;56677;51.710;5.366;2022-11-20T06:59:05;5.93;;;3.90;;
69485;SDS011;56677;51.710;5.366;2022-11-20T07:01:30;6.07;;;3.90;;
69485;SDS011;56677;51.710;5.366;2022-11-20T07:03:55;5.45;;;3.10;;
69485;SDS011;56677;51.710;5.366;2022-11-20T07:06:20;7.88;;;3.90;;
69485;SDS011;56677;51.710;5.366;2022-11-20T07:08:45;6.68;;;3.90;;
69485;SDS011;56677;51.710;5.366;2022-11-20T07:11:11;6.05;;;4.32;;
69485;SDS011;56677;51.710;5.366;2022-11-20T07:13:36;6.03;;;3.70;;
69485;SDS011;56677;51.710;5.366;2022-11-20T07:16:03;5.78;;;3.78;;
69485;SDS011;56677;51.710;5.366;2022-11-20T07:18:28;5.30;;;3.57;;
69485;SDS011;56677;51.710;5.366;2022-11-20T07:20:53;5.33;;;3.50;;
69485;SDS011;56677;51.710;5.366;2022-11-20T07:23:18;6.10;;;3.17;;
69485;SDS011;56677;51.710;5.366;2022-11-20T07:25:44;5.82;;;3.80;;
69485;SDS011;56677;51.710;5.366;2022-11-20T07:28:09;4.57;;;3.10;;
69485;SDS011;56677;51.710;5.366;2022-11-20T07:30:34;5.88;;;3.30;;
69485;SDS011;56677;51.710;5.366;2022-11-20T07:32:59;5.87;;;3.60;;
69485;SDS011;56677;51.710;5.366;2022-11-20T07:35:25;5.47;;;3.37;;
69485;SDS011;56677;51.710;5.366;2022-11-20T07:37:50;4.95;;;3.20;;
69485;SDS011;56677;51.710;5.366;2022-11-20T07:40:15;5.97;;;3.80;;
69485;SDS011;56677;51.710;5.366;2022-11-20T07:42:48;6.40;;;3.87;;
69485;SDS011;56677;51.710;5.366;2022-11-20T07:45:13;7.15;;;3.78;;
69485;SDS011;56677;51.710;5.366;2022-11-20T07:47:38;6.30;;;3.60;;
69485;SDS011;56677;51.710;5.366;2022-11-20T07:50:03;6.15;;;3.88;;
69485;SDS011;56677;51.710;5.366;2022-11-20T07:52:28;6.87;;;3.87;;
69485;SDS011;56677;51.710;5.366;2022-11-20T07:54:54;5.88;;;4.18;;
69485;SDS011;56677;51.710;5.366;2022-11-20T07:57:19;6.03;;;3.55;;
69485;SDS011;56677;51.710;5.366;2022-11-20T07:59:44;5.63;;;3.83;;
69485;SDS011;56677;51.710;5.366;2022-11-20T08:02:10;6.18;;;3.55;;
69485;SDS011;56677;51.710;5.366;2022-11-20T08:04:35;6.47;;;3.93;;
69485;SDS011;56677;51.710;5.366;2022-11-20T08:07:00;6.03;;;3.67;;
69485;SDS011;56677;51.710;5.366;2022-11-20T08:09:25;5.60;;;3.72;;
69485;SDS011;56677;51.710;5.366;2022-11-20T08:11:50;5.50;;;3.33;;
69485;SDS011;56677;51.710;5.366;2022-11-20T08:14:16;6.25;;;3.63;;
69485;SDS011;56677;51.710;5.366;2022-11-20T08:16:41;5.50;;;3.30;;
69485;SDS011;56677;51.710;5.366;2022-11-20T08:19:07;6.95;;;3.55;;
69485;SDS011;56677;51.710;5.366;2022-11-20T08:21:32;5.35;;;3.45;;
69485;SDS011;56677;51.710;5.366;2022-11-20T08:23:57;5.57;;;3.63;;
69485;SDS011;56677;51.710;5.366;2022-11-20T08:26:23;6.10;;;3.57;;
69485;SDS011;56677;51.710;5.366;2022-11-20T08:28:48;5.70;;;3.83;;
69485;SDS011;56677;51.710;5.366;2022-11-20T08:31:13;6.00;;;3.40;;
69485;SDS011;56677;51.710;5.366;2022-11-20T08:33:38;7.15;;;3.72;;
69485;SDS011;56677;51.710;5.366;2022-11-20T08:36:04;5.22;;;3.78;;
69485;SDS011;56677;51.710;5.366;2022-11-20T08:38:30;6.75;;;3.60;;
69485;SDS011;56677;51.710;5.366;2022-11-20T08:40:56;5.63;;;3.73;;
69485;SDS011;56677;51.710;5.366;2022-11-20T08:43:21;7.93;;;3.72;;
69485;SDS011;56677;51.710;5.366;2022-11-20T08:45:46;6.72;;;4.03;;
69485;SDS011;56677;51.710;5.366;2022-11-20T08:48:11;6.55;;;3.70;;
69485;SDS011;56677;51.710;5.366;2022-11-20T08:50:37;5.80;;;3.45;;
69485;SDS011;56677;51.710;5.366;2022-11-20T08:53:03;6.93;;;3.97;;
69485;SDS011;56677;51.710;5.366;2022-11-20T08:55:28;5.85;;;4.03;;
69485;SDS011;56677;51.710;5.366;2022-11-20T08:57:53;5.45;;;3.10;;
69485;SDS011;56677;51.710;5.366;2022-11-20T09:00:18;4.87;;;3.03;;
69485;SDS011;56677;51.710;5.366;2022-11-20T09:02:43;5.13;;;3.03;;
69485;SDS011;56677;51.710;5.366;2022-11-20T09:05:08;5.03;;;2.95;;
69485;SDS011;56677;51.710;5.366;2022-11-20T09:07:33;5.95;;;3.58;;
69485;SDS011;56677;51.710;5.366;2022-11-20T09:09:59;5.22;;;3.33;;
69485;SDS011;56677;51.710;5.366;2022-11-20T09:12:24;5.40;;;3.60;;
69485;SDS011;56677;51.710;5.366;2022-11-20T09:14:49;5.97;;;3.43;;
69485;SDS011;56677;51.710;5.366;2022-11-20T09:17:14;5.45;;;3.35;;
69485;SDS011;56677;51.710;5.366;2022-11-20T09:19:39;5.55;;;3.67;;
69485;SDS011;56677;51.710;5.366;2022-11-20T09:22:05;5.72;;;3.92;;
69485;SDS011;56677;51.710;5.366;2022-11-20T09:24:30;5.93;;;3.80;;
69485;SDS011;56677;51.710;5.366;2022-11-20T09:26:55;6.10;;;3.42;;
69485;SDS011;56677;51.710;5.366;2022-11-20T09:29:20;4.78;;;3.15;;
69485;SDS011;56677;51.710;5.366;2022-11-20T09:31:45;5.78;;;3.60;;
69485;SDS011;56677;51.710;5.366;2022-11-20T09:34:10;5.82;;;4.00;;
69485;SDS011;56677;51.710;5.366;2022-11-20T09:36:35;7.13;;;3.50;;
69485;SDS011;56677;51.710;5.366;2022-11-20T09:39:00;5.50;;;3.70;;
69485;SDS011;56677;51.710;5.366;2022-11-20T09:46:40;6.45;;;3.83;;
69485;SDS011;56677;51.710;5.366;2022-11-20T09:56:28;10.13;;;3.10;;
69485;SDS011;56677;51.710;5.366;2022-11-20T09:58:54;7.65;;;3.58;;
69485;SDS011;56677;51.710;5.366;2022-11-20T10:01:21;6.63;;;3.70;;
69485;SDS011;56677;51.710;5.366;2022-11-20T10:06:24;6.57;;;3.53;;
69485;SDS011;56677;51.710;5.366;2022-11-20T10:08:54;8.65;;;3.10;;
69485;SDS011;56677;51.710;5.366;2022-11-20T10:11:32;6.97;;;3.50;;
69485;SDS011;56677;51.710;5.366;2022-11-20T10:16:28;6.53;;;3.77;;
69485;SDS011;56677;51.710;5.366;2022-11-20T10:19:01;5.75;;;3.13;;
69485;SDS011;56677;51.710;5.366;2022-11-20T10:21:38;7.13;;;3.70;;
69485;SDS011;56677;51.710;5.366;2022-11-20T10:26:34;7.78;;;3.55;;
69485;SDS011;56677;51.710;5.366;2022-11-20T10:29:12;5.28;;;3.38;;
69485;SDS011;56677;51.710;5.366;2022-11-20T10:31:42;7.00;;;3.60;;
69485;SDS011;56677;51.710;5.366;2022-11-20T10:34:17;8.95;;;3.90;;
69485;SDS011;56677;51.710;5.366;2022-11-20T10:36:44;5.50;;;3.25;;
69485;SDS011;56677;51.710;5.366;2022-11-20T10:39:14;6.60;;;3.20;;
69485;SDS011;56677;51.710;5.366;2022-11-20T10:41:41;5.43;;;3.38;;
69485;SDS011;56677;51.710;5.366;2022-11-20T10:46:44;5.70;;;3.33;;
69485;SDS011;56677;51.710;5.366;2022-11-20T10:49:13;7.77;;;3.77;;
69485;SDS011;56677;51.710;5.366;2022-11-20T10:56:52;5.32;;;3.25;;
69485;SDS011;56677;51.710;5.366;2022-11-20T11:02:01;7.05;;;3.30;;
69485;SDS011;56677;51.710;5.366;2022-11-20T11:04:37;8.60;;;3.50;;
69485;SDS011;56677;51.710;5.366;2022-11-20T11:07:13;6.63;;;3.30;;
69485;SDS011;56677;51.710;5.366;2022-11-20T11:09:41;6.07;;;3.78;;
69485;SDS011;56677;51.710;5.366;2022-11-20T11:12:08;5.05;;;3.30;;
69485;SDS011;56677;51.710;5.366;2022-11-20T11:14:41;8.82;;;3.58;;
69485;SDS011;56677;51.710;5.366;2022-11-20T11:17:17;6.80;;;3.43;;
69485;SDS011;56677;51.710;5.366;2022-11-20T11:19:43;6.07;;;3.17;;
69485;SDS011;56677;51.710;5.366;2022-11-20T11:22:10;6.95;;;3.95;;
69485;SDS011;56677;51.710;5.366;2022-11-20T11:24:43;5.85;;;3.88;;
69485;SDS011;56677;51.710;5.366;2022-11-20T11:27:15;8.90;;;3.90;;
69485;SDS011;56677;51.710;5.366;2022-11-20T11:29:41;6.50;;;3.70;;
69485;SDS011;56677;51.710;5.366;2022-11-20T11:32:17;7.97;;;4.53;;
69485;SDS011;56677;51.710;5.366;2022-11-20T11:34:43;8.73;;;5.57;;
69485;SDS011;56677;51.710;5.366;2022-11-20T11:37:17;9.15;;;5.70;;
69485;SDS011;56677;51.710;5.366;2022-11-20T11:39:44;8.17;;;6.17;;
69485;SDS011;56677;51.710;5.366;2022-11-20T11:42:16;9.57;;;6.00;;
69485;SDS011;56677;51.710;5.366;2022-11-20T11:44:45;9.30;;;6.00;;
69485;SDS011;56677;51.710;5.366;2022-11-20T11:47:16;9.73;;;6.30;;
69485;SDS011;56677;51.710;5.366;2022-11-20T11:49:44;8.68;;;5.63;;
69485;SDS011;56677;51.710;5.366;2022-11-20T11:52:19;12.23;;;6.63;;
69485;SDS011;56677;51.710;5.366;2022-11-20T11:54:50;11.45;;;6.40;;
69485;SDS011;56677;51.710;5.366;2022-11-20T12:00:06;12.52;;;6.97;;
69485;SDS011;56677;51.710;5.366;2022-11-20T12:02:54;13.85;;;7.00;;
69485;SDS011;56677;51.710;5.366;2022-11-20T12:05:25;15.77;;;6.97;;
69485;SDS011;56677;51.710;5.366;2022-11-20T12:07:56;14.45;;;6.65;;
69485;SDS011;56677;51.710;5.366;2022-11-20T12:12:53;13.13;;;6.15;;
69485;SDS011;56677;51.710;5.366;2022-11-20T12:15:22;16.92;;;6.78;;
69485;SDS011;56677;51.710;5.366;2022-11-20T12:17:50;13.67;;;6.30;;
69485;SDS011;56677;51.710;5.366;2022-11-20T12:20:15;15.00;;;6.80;;
69485;SDS011;56677;51.710;5.366;2022-11-20T12:30:20;14.70;;;6.20;;
69485;SDS011;56677;51.710;5.366;2022-11-20T12:35:20;13.47;;;6.20;;
69485;SDS011;56677;51.710;5.366;2022-11-20T12:37:57;15.15;;;5.85;;
69485;SDS011;56677;51.710;5.366;2022-11-20T12:40:28;14.50;;;6.35;;
69485;SDS011;56677;51.710;5.366;2022-11-20T12:43:06;14.40;;;6.05;;
69485;SDS011;56677;51.710;5.366;2022-11-20T12:48:19;13.40;;;5.83;;
69485;SDS011;56677;51.710;5.366;2022-11-20T12:50:51;11.93;;;5.30;;
69485;SDS011;56677;51.710;5.366;2022-11-20T12:54:03;15.32;;;5.75;;
69485;SDS011;56677;51.710;5.366;2022-11-20T13:03:49;11.63;;;4.90;;
69485;SDS011;56677;51.710;5.366;2022-11-20T13:06:18;12.75;;;5.22;;
69485;SDS011;56677;51.710;5.366;2022-11-20T13:08:53;10.57;;;5.10;;
69485;SDS011;56677;51.710;5.366;2022-11-20T13:11:21;11.48;;;5.35;;
69485;SDS011;56677;51.710;5.366;2022-11-20T13:16:33;10.57;;;5.03;;
69485;SDS011;56677;51.710;5.366;2022-11-20T13:19:04;9.75;;;4.78;;
69485;SDS011;56677;51.710;5.366;2022-11-20T13:21:41;13.23;;;5.82;;
69485;SDS011;56677;51.710;5.366;2022-11-20T13:24:07;10.85;;;5.07;;
69485;SDS011;56677;51.710;5.366;2022-11-20T13:26:32;10.65;;;5.18;;
69485;SDS011;56677;51.710;5.366;2022-11-20T13:29:31;11.03;;;5.60;;
69485;SDS011;56677;51.710;5.366;2022-11-20T13:31:49;12.37;;;5.40;;
69485;SDS011;56677;51.710;5.366;2022-11-20T13:34:24;10.75;;;5.18;;
69485;SDS011;56677;51.710;5.366;2022-11-20T13:36:50;12.77;;;5.80;;
69485;SDS011;56677;51.710;5.366;2022-11-20T13:39:26;12.30;;;5.60;;
69485;SDS011;56677;51.710;5.366;2022-11-20T13:41:55;10.15;;;4.80;;
69485;SDS011;56677;51.710;5.366;2022-11-20T13:44:35;11.07;;;5.23;;
69485;SDS011;56677;51.710;5.366;2022-11-20T13:47:01;10.75;;;4.75;;
69485;SDS011;56677;51.710;5.366;2022-11-20T13:49:29;9.93;;;5.28;;
69485;SDS011;56677;51.710;5.366;2022-11-20T13:59:26;10.23;;;4.90;;
69485;SDS011;56677;51.710;5.366;2022-11-20T14:01:55;11.07;;;5.00;;
69485;SDS011;56677;51.710;5.366;2022-11-20T14:04:25;9.77;;;4.77;;
69485;SDS011;56677;51.710;5.366;2022-11-20T14:06:51;10.57;;;5.28;;
69485;SDS011;56677;51.710;5.366;2022-11-20T14:09:37;14.30;;;5.30;;
69485;SDS011;56677;51.710;5.366;2022-11-20T14:12:03;14.77;;;6.35;;
69485;SDS011;56677;51.710;5.366;2022-11-20T14:14:29;13.63;;;5.93;;
69485;SDS011;56677;51.710;5.366;2022-11-20T14:19:46;12.43;;;6.00;;
69485;SDS011;56677;51.710;5.366;2022-11-20T14:22:25;15.48;;;6.00;;
69485;SDS011;56677;51.710;5.366;2022-11-20T14:27:34;10.13;;;5.40;;
69485;SDS011;56677;51.710;5.366;2022-11-20T14:30:01;11.87;;;5.30;;
69485;SDS011;56677;51.710;5.366;2022-11-20T14:32:27;14.70;;;5.97;;
69485;SDS011;56677;51.710;5.366;2022-11-20T14:34:53;11.95;;;6.47;;
69485;SDS011;56677;51.710;5.366;2022-11-20T14:37:21;11.60;;;5.33;;
69485;SDS011;56677;51.710;5.366;2022-11-20T14:39:51;14.13;;;6.45;;
69485;SDS011;56677;51.710;5.366;2022-11-20T14:42:21;14.87;;;5.90;;
69485;SDS011;56677;51.710;5.366;2022-11-20T14:44:47;13.05;;;6.38;;
69485;SDS011;56677;51.710;5.366;2022-11-20T14:47:13;12.00;;;6.50;;
69485;SDS011;56677;51.710;5.366;2022-11-20T14:49:39;11.93;;;6.25;;
69485;SDS011;56677;51.710;5.366;2022-11-20T14:52:18;11.23;;;5.80;;
69485;SDS011;56677;51.710;5.366;2022-11-20T14:54:47;12.88;;;5.90;;
69485;SDS011;56677;51.710;5.366;2022-11-20T14:57:20;12.02;;;6.00;;
69485;SDS011;56677;51.710;5.366;2022-11-20T14:59:45;11.38;;;5.30;;
69485;SDS011;56677;51.710;5.366;2022-11-20T15:02:11;11.50;;;5.85;;
69485;SDS011;56677;51.710;5.366;2022-11-20T15:04:46;10.37;;;5.77;;
69485;SDS011;56677;51.710;5.366;2022-11-20T15:07:22;12.35;;;5.80;;
69485;SDS011;56677;51.710;5.366;2022-11-20T15:09:52;12.35;;;6.15;;
69485;SDS011;56677;51.710;5.366;2022-11-20T15:12:23;10.48;;;5.57;;
69485;SDS011;56677;51.710;5.366;2022-11-20T15:14:48;10.70;;;5.82;;
69485;SDS011;56677;51.710;5.366;2022-11-20T15:17:13;13.35;;;5.65;;
69485;SDS011;56677;51.710;5.366;2022-11-20T15:19:38;12.03;;;6.03;;
69485;SDS011;56677;51.710;5.366;2022-11-20T15:22:04;10.05;;;5.63;;
69485;SDS011;56677;51.710;5.366;2022-11-20T15:24:34;10.10;;;5.07;;
69485;SDS011;56677;51.710;5.366;2022-11-20T15:26:59;11.45;;;6.05;;
69485;SDS011;56677;51.710;5.366;2022-11-20T15:29:24;13.30;;;5.13;;
69485;SDS011;56677;51.710;5.366;2022-11-20T15:31:49;9.15;;;5.13;;
69485;SDS011;56677;51.710;5.366;2022-11-20T15:34:15;12.05;;;5.43;;
69485;SDS011;56677;51.710;5.366;2022-11-20T15:36:40;9.97;;;5.50;;
69485;SDS011;56677;51.710;5.366;2022-11-20T15:39:06;16.83;;;5.70;;
69485;SDS011;56677;51.710;5.366;2022-11-20T15:41:31;11.80;;;5.47;;
69485;SDS011;56677;51.710;5.366;2022-11-20T15:43:56;10.38;;;5.55;;
69485;SDS011;56677;51.710;5.366;2022-11-20T15:46:28;13.17;;;6.17;;
69485;SDS011;56677;51.710;5.366;2022-11-20T15:48:54;10.63;;;5.47;;
69485;SDS011;56677;51.710;5.366;2022-11-20T15:53:45;11.20;;;5.40;;
69485;SDS011;56677;51.710;5.366;2022-11-20T15:56:11;12.48;;;5.80;;
69485;SDS011;56677;51.710;5.366;2022-11-20T15:58:37;11.57;;;5.88;;
69485;SDS011;56677;51.710;5.366;2022-11-20T16:01:02;9.80;;;5.60;;
69485;SDS011;56677;51.710;5.366;2022-11-20T16:03:28;10.60;;;5.60;;
69485;SDS011;56677;51.710;5.366;2022-11-20T16:05:53;9.77;;;5.03;;
69485;SDS011;56677;51.710;5.366;2022-11-20T16:08:18;9.18;;;5.93;;
69485;SDS011;56677;51.710;5.366;2022-11-20T16:10:43;11.15;;;5.75;;
69485;SDS011;56677;51.710;5.366;2022-11-20T16:13:12;14.33;;;5.90;;
69485;SDS011;56677;51.710;5.366;2022-11-20T16:15:37;11.77;;;5.55;;
69485;SDS011;56677;51.710;5.366;2022-11-20T16:18:03;10.77;;;5.70;;
69485;SDS011;56677;51.710;5.366;2022-11-20T16:20:28;11.07;;;5.20;;
69485;SDS011;56677;51.710;5.366;2022-11-20T16:22:53;10.80;;;5.60;;
69485;SDS011;56677;51.710;5.366;2022-11-20T16:25:18;10.40;;;5.88;;
69485;SDS011;56677;51.710;5.366;2022-11-20T16:27:43;11.20;;;5.87;;
69485;SDS011;56677;51.710;5.366;2022-11-20T16:30:08;9.52;;;5.63;;
69485;SDS011;56677;51.710;5.366;2022-11-20T16:32:34;11.70;;;5.38;;
69485;SDS011;56677;51.710;5.366;2022-11-20T16:34:59;9.63;;;5.80;;
69485;SDS011;56677;51.710;5.366;2022-11-20T16:37:24;9.95;;;5.40;;
69485;SDS011;56677;51.710;5.366;2022-11-20T16:39:49;10.57;;;4.97;;
69485;SDS011;56677;51.710;5.366;2022-11-20T16:42:14;12.70;;;5.53;;
69485;SDS011;56677;51.710;5.366;2022-11-20T16:44:39;10.73;;;5.80;;
69485;SDS011;56677;51.710;5.366;2022-11-20T16:47:04;10.10;;;5.30;;
69485;SDS011;56677;51.710;5.366;2022-11-20T16:49:30;10.82;;;5.72;;
69485;SDS011;56677;51.710;5.366;2022-11-20T16:51:55;8.70;;;5.22;;
69485;SDS011;56677;51.710;5.366;2022-11-20T16:54:20;8.60;;;4.80;;
69485;SDS011;56677;51.710;5.366;2022-11-20T16:56:45;10.48;;;5.35;;
69485;SDS011;56677;51.710;5.366;2022-11-20T16:59:10;8.43;;;5.07;;
69485;SDS011;56677;51.710;5.366;2022-11-20T17:01:35;9.98;;;4.88;;
69485;SDS011;56677;51.710;5.366;2022-11-20T17:04:04;10.68;;;5.32;;
69485;SDS011;56677;51.710;5.366;2022-11-20T17:06:30;8.77;;;4.90;;
69485;SDS011;56677;51.710;5.366;2022-11-20T17:08:56;12.35;;;5.53;;
69485;SDS011;56677;51.710;5.366;2022-11-20T17:11:21;9.32;;;5.35;;
69485;SDS011;56677;51.710;5.366;2022-11-20T17:13:47;10.53;;;6.23;;
69485;SDS011;56677;51.710;5.366;2022-11-20T17:16:14;9.07;;;5.22;;
69485;SDS011;56677;51.710;5.366;2022-11-20T17:18:39;9.57;;;5.37;;
69485;SDS011;56677;51.710;5.366;2022-11-20T17:21:04;10.50;;;5.03;;
69485;SDS011;56677;51.710;5.366;2022-11-20T17:23:30;7.57;;;4.75;;
69485;SDS011;56677;51.710;5.366;2022-11-20T17:28:33;9.60;;;5.40;;
69485;SDS011;56677;51.710;5.366;2022-11-20T17:30:59;8.47;;;5.23;;
69485;SDS011;56677;51.710;5.366;2022-11-20T17:33:24;9.13;;;4.97;;
69485;SDS011;56677;51.710;5.366;2022-11-20T17:35:50;8.30;;;4.75;;
69485;SDS011;56677;51.710;5.366;2022-11-20T17:38:15;8.88;;;5.10;;
69485;SDS011;56677;51.710;5.366;2022-11-20T17:40:40;8.70;;;4.93;;
69485;SDS011;56677;51.710;5.366;2022-11-20T17:43:05;8.02;;;4.60;;
69485;SDS011;56677;51.710;5.366;2022-11-20T17:45:30;9.07;;;4.95;;
69485;SDS011;56677;51.710;5.366;2022-11-20T17:47:55;8.73;;;5.28;;
69485;SDS011;56677;51.710;5.366;2022-11-20T17:50:20;9.38;;;5.03;;
69485;SDS011;56677;51.710;5.366;2022-11-20T17:52:45;7.63;;;5.05;;
69485;SDS011;56677;51.710;5.366;2022-11-20T17:55:10;7.43;;;4.70;;
69485;SDS011;56677;51.710;5.366;2022-11-20T17:57:35;8.65;;;4.72;;
69485;SDS011;56677;51.710;5.366;2022-11-20T18:00:01;9.48;;;5.22;;
69485;SDS011;56677;51.710;5.366;2022-11-20T18:02:26;8.68;;;4.97;;
69485;SDS011;56677;51.710;5.366;2022-11-20T18:04:51;7.33;;;4.90;;
69485;SDS011;56677;51.710;5.366;2022-11-20T18:07:16;8.13;;;4.97;;
69485;SDS011;56677;51.710;5.366;2022-11-20T18:09:41;8.27;;;4.88;;
69485;SDS011;56677;51.710;5.366;2022-11-20T18:12:06;8.60;;;5.22;;
69485;SDS011;56677;51.710;5.366;2022-11-20T18:14:31;9.13;;;4.70;;
69485;SDS011;56677;51.710;5.366;2022-11-20T18:17:04;8.50;;;4.60;;
69485;SDS011;56677;51.710;5.366;2022-11-20T18:19:31;9.63;;;5.63;;
69485;SDS011;56677;51.710;5.366;2022-11-20T18:21:56;10.23;;;5.37;;
69485;SDS011;56677;51.710;5.366;2022-11-20T18:24:22;7.67;;;4.97;;
69485;SDS011;56677;51.710;5.366;2022-11-20T18:26:47;8.52;;;4.93;;
69485;SDS011;56677;51.710;5.366;2022-11-20T18:29:12;8.18;;;4.38;;
69485;SDS011;56677;51.710;5.366;2022-11-20T18:31:38;7.90;;;4.80;;
69485;SDS011;56677;51.710;5.366;2022-11-20T18:34:03;9.50;;;4.80;;
69485;SDS011;56677;51.710;5.366;2022-11-20T18:36:28;8.52;;;5.07;;
69485;SDS011;56677;51.710;5.366;2022-11-20T18:38:54;7.63;;;4.97;;
69485;SDS011;56677;51.710;5.366;2022-11-20T18:41:20;7.93;;;5.00;;
69485;SDS011;56677;51.710;5.366;2022-11-20T18:43:45;8.63;;;5.13;;
69485;SDS011;56677;51.710;5.366;2022-11-20T18:46:11;10.32;;;5.20;;
69485;SDS011;56677;51.710;5.366;2022-11-20T18:48:36;7.35;;;4.40;;
69485;SDS011;56677;51.710;5.366;2022-11-20T18:51:05;8.13;;;4.70;;
69485;SDS011;56677;51.710;5.366;2022-11-20T18:53:30;8.70;;;5.37;;
69485;SDS011;56677;51.710;5.366;2022-11-20T18:55:55;7.70;;;4.97;;
69485;SDS011;56677;51.710;5.366;2022-11-20T18:58:20;7.80;;;4.38;;
69485;SDS011;56677;51.710;5.366;2022-11-20T19:00:45;6.70;;;4.40;;
69485;SDS011;56677;51.710;5.366;2022-11-20T19:03:10;8.25;;;4.57;;
69485;SDS011;56677;51.710;5.366;2022-11-20T19:05:36;8.20;;;5.10;;
69485;SDS011;56677;51.710;5.366;2022-11-20T19:08:01;9.93;;;5.15;;
69485;SDS011;56677;51.710;5.366;2022-11-20T19:10:26;8.77;;;4.60;;
69485;SDS011;56677;51.710;5.366;2022-11-20T19:12:51;9.15;;;4.35;;
69485;SDS011;56677;51.710;5.366;2022-11-20T19:15:16;8.68;;;4.78;;
69485;SDS011;56677;51.710;5.366;2022-11-20T19:17:41;9.27;;;4.93;;
69485;SDS011;56677;51.710;5.366;2022-11-20T19:20:06;6.47;;;4.25;;
69485;SDS011;56677;51.710;5.366;2022-11-20T19:22:31;7.63;;;4.60;;
69485;SDS011;56677;51.710;5.366;2022-11-20T19:24:56;8.52;;;4.65;;
69485;SDS011;56677;51.710;5.366;2022-11-20T19:27:22;8.32;;;4.78;;
69485;SDS011;56677;51.710;5.366;2022-11-20T19:29:47;8.65;;;4.60;;
69485;SDS011;56677;51.710;5.366;2022-11-20T19:32:12;9.50;;;5.05;;
69485;SDS011;56677;51.710;5.366;2022-11-20T19:34:37;8.65;;;4.25;;
69485;SDS011;56677;51.710;5.366;2022-11-20T19:37:02;9.02;;;4.45;;
69485;SDS011;56677;51.710;5.366;2022-11-20T19:39:27;7.70;;;4.80;;
69485;SDS011;56677;51.710;5.366;2022-11-20T19:41:52;8.43;;;4.67;;
69485;SDS011;56677;51.710;5.366;2022-11-20T19:44:17;7.15;;;3.95;;
69485;SDS011;56677;51.710;5.366;2022-11-20T19:46:43;8.10;;;4.50;;
69485;SDS011;56677;51.710;5.366;2022-11-20T19:49:09;7.93;;;4.13;;
69485;SDS011;56677;51.710;5.366;2022-11-20T19:51:35;10.87;;;4.40;;
69485;SDS011;56677;51.710;5.366;2022-11-20T19:54:03;8.82;;;4.20;;
69485;SDS011;56677;51.710;5.366;2022-11-20T19:56:29;7.90;;;4.30;;
69485;SDS011;56677;51.710;5.366;2022-11-20T19:58:54;8.25;;;4.38;;
69485;SDS011;56677;51.710;5.366;2022-11-20T20:01:21;10.90;;;5.30;;
69485;SDS011;56677;51.710;5.366;2022-11-20T20:03:46;11.35;;;4.95;;
69485;SDS011;56677;51.710;5.366;2022-11-20T20:06:12;12.13;;;5.50;;
69485;SDS011;56677;51.710;5.366;2022-11-20T20:08:41;13.15;;;6.25;;
69485;SDS011;56677;51.710;5.366;2022-11-20T20:11:13;16.08;;;6.82;;
69485;SDS011;56677;51.710;5.366;2022-11-20T20:13:39;16.33;;;6.47;;
69485;SDS011;56677;51.710;5.366;2022-11-20T20:16:05;16.07;;;7.47;;
69485;SDS011;56677;51.710;5.366;2022-11-20T20:18:30;25.52;;;8.48;;
69485;SDS011;56677;51.710;5.366;2022-11-20T20:21:00;20.88;;;8.65;;
69485;SDS011;56677;51.710;5.366;2022-11-20T20:23:25;25.40;;;8.57;;
69485;SDS011;56677;51.710;5.366;2022-11-20T20:25:50;26.00;;;9.52;;
69485;SDS011;56677;51.710;5.366;2022-11-20T20:28:15;29.15;;;10.85;;
69485;SDS011;56677;51.710;5.366;2022-11-20T20:30:40;25.02;;;10.25;;
69485;SDS011;56677;51.710;5.366;2022-11-20T20:33:05;31.33;;;11.30;;
69485;SDS011;56677;51.710;5.366;2022-11-20T20:35:30;29.33;;;12.40;;
69485;SDS011;56677;51.710;5.366;2022-11-20T20:37:56;34.63;;;12.18;;
69485;SDS011;56677;51.710;5.366;2022-11-20T20:40:21;33.25;;;13.55;;
69485;SDS011;56677;51.710;5.366;2022-11-20T20:42:46;36.45;;;12.88;;
69485;SDS011;56677;51.710;5.366;2022-11-20T20:45:11;35.03;;;13.95;;
69485;SDS011;56677;51.710;5.366;2022-11-20T20:47:37;37.90;;;14.95;;
69485;SDS011;56677;51.710;5.366;2022-11-20T20:50:03;40.20;;;15.03;;
69485;SDS011;56677;51.710;5.366;2022-11-20T20:52:29;35.10;;;14.60;;
69485;SDS011;56677;51.710;5.366;2022-11-20T20:54:54;40.43;;;16.07;;
69485;SDS011;56677;51.710;5.366;2022-11-20T20:57:19;39.87;;;15.50;;
69485;SDS011;56677;51.710;5.366;2022-11-20T20:59:45;39.92;;;15.63;;
69485;SDS011;56677;51.710;5.366;2022-11-20T21:02:10;39.85;;;16.42;;
69485;SDS011;56677;51.710;5.366;2022-11-20T21:04:35;37.07;;;15.30;;
69485;SDS011;56677;51.710;5.366;2022-11-20T21:07:00;37.73;;;14.43;;
69485;SDS011;56677;51.710;5.366;2022-11-20T21:09:25;36.88;;;15.00;;
69485;SDS011;56677;51.710;5.366;2022-11-20T21:11:50;36.20;;;15.37;;
69485;SDS011;56677;51.710;5.366;2022-11-20T21:14:16;37.25;;;14.32;;
69485;SDS011;56677;51.710;5.366;2022-11-20T21:16:41;35.87;;;15.13;;
69485;SDS011;56677;51.710;5.366;2022-11-20T21:19:06;34.53;;;13.80;;
69485;SDS011;56677;51.710;5.366;2022-11-20T21:21:31;29.40;;;13.85;;
69485;SDS011;56677;51.710;5.366;2022-11-20T21:23:56;39.03;;;13.75;;
69485;SDS011;56677;51.710;5.366;2022-11-20T21:26:22;32.23;;;13.57;;
69485;SDS011;56677;51.710;5.366;2022-11-20T21:28:47;34.55;;;13.35;;
69485;SDS011;56677;51.710;5.366;2022-11-20T21:31:13;38.33;;;15.07;;
69485;SDS011;56677;51.710;5.366;2022-11-20T21:33:39;36.10;;;13.20;;
69485;SDS011;56677;51.710;5.366;2022-11-20T21:36:05;33.13;;;13.15;;
69485;SDS011;56677;51.710;5.366;2022-11-20T21:38:30;32.38;;;13.50;;
69485;SDS011;56677;51.710;5.366;2022-11-20T21:40:56;29.17;;;12.68;;
69485;SDS011;56677;51.710;5.366;2022-11-20T21:43:21;33.23;;;12.90;;
69485;SDS011;56677;51.710;5.366;2022-11-20T21:45:46;28.20;;;12.93;;
69485;SDS011;56677;51.710;5.366;2022-11-20T21:48:11;29.65;;;12.55;;
69485;SDS011;56677;51.710;5.366;2022-11-20T21:50:36;27.17;;;11.90;;
69485;SDS011;56677;51.710;5.366;2022-11-20T21:53:02;26.88;;;12.38;;
69485;SDS011;56677;51.710;5.366;2022-11-20T21:55:27;28.17;;;12.40;;
69485;SDS011;56677;51.710;5.366;2022-11-20T21:57:52;26.70;;;12.05;;
69485;SDS011;56677;51.710;5.366;2022-11-20T22:00:17;26.67;;;11.98;;
